WFLO2: Webbers Falls Lock & Dam & Reservoir (L&D 16)

Data processed at Tue 04Oct2022 03:11 GMT


All information presented herein is the property of the government of the United States of America and may be revised or deleted at any time without prior notice.
Dissemination of this information without the expressed written consent of the Public Affairs Office, Tulsa District U.S. Army Corps of Engineers is strictly prohibited.
These data are gathered electronically and, as presented, have not undergone any form of quality control. These data are not guaranteed to be valid or correct.
Go to home page.
Go to station list.

Upstream stations:

Downstream station:
Previous Day
Next Day
Current Day


                            
SHEF ID:       WFLO2     Webbers Falls LD16
STATION TYPE:  NAVIGATION LOCK
Navigation Pool:  Bottom =   487.00, Top =   490.00

               PRECIP ELEVATION   STORAGE   TW-ELEV    INFLOW   RELEASE  AIR-TEMP  WIND-DIRWIND-SPEED REL-HUMID SOLAR-RAD   VOLTAGE  BAT-LOAD
                   in        ft     ac-ft        ft       cfs       cfs         F       deg       mph         %      W/m2      volt      volt
              Ccp-Rev   Ccp-Rev   Ccp-Rev   Ccp-Rev  Rev-Regi  Rev-Regi   Ccp-Rev   Ccp-Rev   Ccp-Rev   Ccp-Rev   Ccp-Rev   Ccp-Rev   Ccp-Rev
(US/Central)
10/03 00:00      0.00    489.90    169019    459.70      2512        92     55.33     10.20      2.40     76.00      0.00     13.18     12.81
10/03 01:00      0.00    489.90    169019    459.86      2362         0     53.85     18.80      1.40     85.03      0.00     13.18     12.81
10/03 02:00      0.00    489.89    168911    459.89      1190         0     51.80     19.10      1.70     91.47      0.00     13.18     12.81
10/03 03:00      0.00    489.88    168803    459.83       207         0     51.96     75.30      0.90     95.26      0.00     13.18     12.81
10/03 04:00      0.00    489.90    169019    459.80       292         0     51.35    108.20      1.10     92.97      0.00     13.16     12.81
10/03 05:00      0.00    489.94    169452    459.70      1771         0     49.05     63.10      1.10     92.43      0.00     13.18     12.81
10/03 06:00      0.00    489.91    169127    459.92      1702      8800     47.89     69.00      1.00     90.55      0.00     13.18     12.81
10/03 07:00      0.00    489.93    169344    460.00      1633         0     48.88    121.40      2.10     91.63      0.00     13.18     12.81
10/03 08:00      0.00    489.90    169019    459.77      1564         0     50.41    133.10      2.90     92.55     19.10     13.18     12.89
10/03 09:00      0.00    489.88    168803    459.63      1480         0     55.20    156.40      4.30     83.46    201.00     13.16     12.81
10/03 10:00      0.00    489.94    169452    459.80         0         0     61.23    168.90      5.00     61.31    427.70     13.18     12.89
10/03 11:00      0.00    489.86    168587    459.98        18         0     67.48    163.50      5.90     47.55    623.00     13.18     12.89
10/03 12:00      0.00    489.85    168479    459.99        18         0     71.04    161.60      7.70     36.69    773.10     13.18     12.81
10/03 13:00      0.00    489.89    168911    459.88        20         0     74.07    160.80      4.70     31.64    856.40     13.18     12.81
10/03 14:00      0.00    489.65    166318    459.74        22         0     77.52    176.50      2.50     28.29    867.30     13.17     12.89
10/03 15:00      0.00    489.87    168695    460.00     10316      9150     82.67    225.70      0.90     24.60    795.10     13.18     12.81
10/03 16:00      0.00    489.82    168155    459.98     10358      9150     84.49    200.00      1.00     23.46    671.40     13.18     12.81
10/03 17:00      0.00    489.78    167723    459.94         0      9150     84.67    205.70      1.30     20.72    496.70     13.18     12.81
10/03 18:00      0.00    489.77    167614    459.82       216      8800     82.58    178.70      2.80     22.96    286.80     13.18     12.81
10/03 19:00      ----    489.92    169235    459.61     20652         0     78.17    157.70      1.50     34.22     45.40     13.18     12.81
10/03 20:00      0.00    490.01    170221    459.56     10475         0     69.53     20.80      1.10     45.78      0.00     13.18     12.81
10/03 21:00      0.00    489.96    169668    459.75      ----         0     63.82     24.90      1.80     51.71      0.00     13.18     12.81
10/03 22:00      ----      ----      ----      ----      ----      ----      ----      ----      ----      ----      ----      ----      ----
10/03 23:00      ----      ----      ----      ----      ----      ----      ----      ----      ----      ----      ----      ----      ----